Time;durP1;ratioP1;P1;durP2;ratioP2;P2;SDS_P1;SDS_P2;PMS_P1;PMS_P2;Temp;Humidity;BMP_temperature;BMP_pressure;BME280_temperature;BME280_humidity;BME280_pressure;Samples;Min_cycle;Max_cycle;Signal;HPM_P1;HPM_P2
2022/12/12 00:01:42;;;;;;;25.55;13.23;;;1.00;99.90;;;;;;5075556;28;20473;-59
2022/12/12 00:04:08;;;;;;;22.45;12.85;;;1.10;99.90;;;;;;5063246;28;20036;-59
2022/12/12 00:06:34;;;;;;;22.48;12.70;;;1.10;99.90;;;;;;5075517;28;20256;-60
2022/12/12 00:09:00;;;;;;;23.55;12.55;;;1.10;99.90;;;;;;5075650;28;20040;-59
2022/12/12 00:11:26;;;;;;;21.38;11.88;;;1.00;99.90;;;;;;5057562;28;20044;-60
2022/12/12 00:13:53;;;;;;;22.25;12.48;;;1.10;99.90;;;;;;5075315;28;20043;-59
2022/12/12 00:16:19;;;;;;;26.95;13.73;;;1.20;99.90;;;;;;5057083;28;20049;-59
2022/12/12 00:18:45;;;;;;;23.80;12.60;;;1.10;99.90;;;;;;5073832;28;20076;-59
2022/12/12 00:21:14;;;;;;;22.25;12.50;;;1.10;99.90;;;;;;5057367;28;20495;-60
2022/12/12 00:23:39;;;;;;;25.85;12.88;;;1.10;99.90;;;;;;5074007;28;20464;-59
2022/12/12 00:26:11;;;;;;;23.52;12.25;;;1.10;99.90;;;;;;5073606;28;20156;-60
2022/12/12 00:28:36;;;;;;;27.00;13.52;;;1.10;99.90;;;;;;5056994;28;20071;-61
2022/12/12 00:31:02;;;;;;;25.10;12.77;;;1.20;99.90;;;;;;5057165;28;20079;-61
2022/12/12 00:33:27;;;;;;;24.75;13.38;;;1.10;99.90;;;;;;5056967;28;20051;-58
2022/12/12 00:35:54;;;;;;;22.83;12.30;;;1.20;99.90;;;;;;5074643;28;20033;-56
2022/12/12 00:38:22;;;;;;;23.20;12.30;;;1.20;99.90;;;;;;5056740;28;20044;-59
2022/12/12 00:40:48;;;;;;;24.25;13.48;;;1.20;99.90;;;;;;5057127;28;20036;-59
2022/12/12 00:43:14;;;;;;;23.88;12.02;;;1.20;99.90;;;;;;5056881;28;20032;-59
2022/12/12 00:45:40;;;;;;;22.38;12.85;;;1.20;99.90;;;;;;5056387;28;20484;-62
2022/12/12 00:48:06;;;;;;;24.75;13.45;;;1.20;99.90;;;;;;5056393;28;20069;-61
2022/12/12 00:50:33;;;;;;;23.33;12.65;;;1.20;99.90;;;;;;5056801;28;20040;-60
2022/12/12 00:52:59;;;;;;;22.17;11.88;;;1.20;99.90;;;;;;5056581;28;20107;-61
2022/12/12 00:55:25;;;;;;;21.92;11.93;;;1.20;99.90;;;;;;5056299;28;20635;-58
2022/12/12 00:57:51;;;;;;;23.00;12.52;;;1.10;99.90;;;;;;5055990;28;20113;-59
2022/12/12 01:00:17;;;;;;;20.55;12.57;;;1.10;99.90;;;;;;5074526;28;20032;-60
2022/12/12 01:02:43;;;;;;;22.85;12.23;;;1.10;99.90;;;;;;5062574;28;20094;-61
2022/12/12 01:05:10;;;;;;;21.65;12.38;;;1.10;99.90;;;;;;5035503;28;20045;-61
2022/12/12 01:07:35;;;;;;;24.10;12.50;;;1.10;99.90;;;;;;5056511;28;20093;-61
2022/12/12 01:10:05;;;;;;;21.92;11.45;;;1.10;99.90;;;;;;5037055;28;20437;-60
2022/12/12 01:12:31;;;;;;;23.45;12.38;;;1.10;99.90;;;;;;5056070;28;20029;-59
2022/12/12 01:14:57;;;;;;;22.15;11.85;;;1.10;99.90;;;;;;5055917;28;20040;-61
2022/12/12 01:17:23;;;;;;;23.95;12.93;;;1.10;99.90;;;;;;5055622;28;20113;-60
2022/12/12 01:19:48;;;;;;;21.85;12.70;;;1.10;99.90;;;;;;5039687;28;20127;-62
2022/12/12 01:22:14;;;;;;;22.63;12.27;;;1.20;99.90;;;;;;5073742;28;20036;-59
2022/12/12 01:24:39;;;;;;;22.60;12.00;;;1.20;99.90;;;;;;5055977;28;20449;-60
2022/12/12 01:27:05;;;;;;;21.75;12.52;;;1.20;99.90;;;;;;5055608;28;20055;-58
2022/12/12 01:29:32;;;;;;;21.40;11.55;;;1.20;99.90;;;;;;5055887;28;20062;-57
2022/12/12 01:31:58;;;;;;;21.20;12.13;;;1.20;99.90;;;;;;5073862;28;20108;-59
2022/12/12 01:34:24;;;;;;;23.20;12.40;;;1.20;99.90;;;;;;5055494;28;20040;-58
2022/12/12 01:36:49;;;;;;;21.45;12.50;;;1.20;99.90;;;;;;5055791;28;20083;-60
2022/12/12 01:39:15;;;;;;;21.17;11.73;;;1.20;99.90;;;;;;5073462;28;20033;-60
2022/12/12 01:41:42;;;;;;;22.75;12.70;;;1.20;99.90;;;;;;5039339;28;20487;-60
2022/12/12 01:44:38;;;;;;;23.60;12.90;;;1.20;99.90;;;;;;5055106;28;20042;-59
2022/12/12 01:47:04;;;;;;;18.83;11.50;;;1.20;99.90;;;;;;5055348;28;20463;-62
2022/12/12 01:49:32;;;;;;;26.25;13.85;;;1.20;99.90;;;;;;5055678;28;20052;-61
2022/12/12 01:52:02;;;;;;;22.13;11.85;;;1.20;99.90;;;;;;5055482;28;20048;-60
2022/12/12 01:54:32;;;;;;;23.15;12.95;;;1.20;99.90;;;;;;5071532;28;20040;-60
2022/12/12 01:57:01;;;;;;;22.35;12.48;;;1.20;99.90;;;;;;5072887;28;20051;-59
2022/12/12 01:59:28;;;;;;;22.80;12.00;;;1.30;99.90;;;;;;5055368;28;20043;-57
2022/12/12 02:01:54;;;;;;;20.85;12.15;;;1.30;99.90;;;;;;5055249;28;20507;-60
2022/12/12 02:04:21;;;;;;;20.02;11.75;;;1.30;99.90;;;;;;5071635;28;20040;-60
2022/12/12 02:06:50;;;;;;;20.30;11.15;;;1.20;99.90;;;;;;5055322;28;20372;-60
2022/12/12 02:09:16;;;;;;;21.17;11.85;;;1.20;99.90;;;;;;5055158;28;20383;-62
2022/12/12 02:11:45;;;;;;;21.20;12.25;;;1.20;99.90;;;;;;5055179;28;20044;-59
2022/12/12 02:14:17;;;;;;;21.77;12.02;;;1.20;99.90;;;;;;5071876;28;20169;-61
2022/12/12 02:17:00;;;;;;;22.58;12.60;;;1.30;99.90;;;;;;5054844;28;20037;-60
2022/12/12 02:19:56;;;;;;;22.42;11.88;;;1.30;99.90;;;;;;5055042;28;20401;-60
2022/12/12 02:22:31;;;;;;;23.13;12.15;;;1.30;99.90;;;;;;5055092;28;20037;-60
2022/12/12 02:24:59;;;;;;;23.23;12.50;;;1.20;99.90;;;;;;5054690;28;20045;-60
2022/12/12 02:27:38;;;;;;;21.42;12.80;;;1.30;99.90;;;;;;5072235;28;20170;-61
2022/12/12 02:30:21;;;;;;;20.45;11.57;;;1.30;99.90;;;;;;5072769;28;20434;-60
2022/12/12 02:33:17;;;;;;;20.88;11.93;;;1.40;99.90;;;;;;5072620;28;20044;-61
2022/12/12 02:36:06;;;;;;;20.00;11.48;;;1.40;99.90;;;;;;5072657;28;20041;-60
2022/12/12 02:38:41;;;;;;;20.10;11.38;;;1.40;99.90;;;;;;5073029;28;20072;-62
2022/12/12 02:41:24;;;;;;;21.02;11.68;;;1.40;99.90;;;;;;5072830;28;20102;-61
2022/12/12 02:44:20;;;;;;;20.88;11.88;;;1.40;99.90;;;;;;5072457;28;20437;-62
2022/12/12 02:47:10;;;;;;;20.30;12.70;;;1.40;99.90;;;;;;5061848;28;20161;-61
2022/12/12 02:49:43;;;;;;;22.80;12.55;;;1.50;99.90;;;;;;5070641;28;20161;-61
2022/12/12 02:52:10;;;;;;;21.52;12.07;;;1.40;99.90;;;;;;5072042;28;20044;-58
2022/12/12 02:54:36;;;;;;;21.23;12.32;;;1.40;99.90;;;;;;5071698;28;20056;-61
2022/12/12 02:57:03;;;;;;;19.73;11.43;;;1.40;99.90;;;;;;5072258;28;20095;-60
2022/12/12 02:59:34;;;;;;;21.17;12.32;;;1.50;99.90;;;;;;5072156;28;20135;-59
2022/12/12 03:02:06;;;;;;;23.10;13.13;;;1.40;99.90;;;;;;5072204;28;20072;-59
2022/12/12 03:08:47;;;;;;;19.60;11.63;;;1.40;99.90;;;;;;5070705;28;20082;-59
2022/12/12 03:11:26;;;;;;;21.48;12.73;;;1.40;99.90;;;;;;5062649;28;20109;-59
2022/12/12 03:14:03;;;;;;;21.77;12.27;;;1.40;99.90;;;;;;5071371;28;20032;-60
2022/12/12 03:16:43;;;;;;;21.48;12.40;;;1.40;99.90;;;;;;5071807;28;20099;-58
2022/12/12 03:19:24;;;;;;;21.67;12.63;;;1.40;99.90;;;;;;5071573;28;20029;-59
2022/12/12 03:22:07;;;;;;;22.08;12.77;;;1.30;99.90;;;;;;5071741;28;20461;-60
2022/12/12 03:24:45;;;;;;;21.67;12.30;;;1.30;99.90;;;;;;5060205;28;20110;-59
2022/12/12 03:27:23;;;;;;;24.05;12.70;;;1.30;99.90;;;;;;5053566;28;20056;-59
2022/12/12 03:30:08;;;;;;;26.75;13.32;;;1.30;99.90;;;;;;5071552;28;20045;-59
2022/12/12 03:32:47;;;;;;;21.65;12.57;;;1.30;99.90;;;;;;5071464;28;20368;-59
2022/12/12 03:35:21;;;;;;;20.90;12.38;;;1.30;99.90;;;;;;5071648;28;20338;-61
2022/12/12 03:37:52;;;;;;;25.23;13.43;;;1.30;99.90;;;;;;5071716;28;20123;-58
2022/12/12 03:40:32;;;;;;;22.52;11.68;;;1.30;99.90;;;;;;5071663;28;20383;-59
2022/12/12 03:43:07;;;;;;;21.15;11.80;;;1.20;99.90;;;;;;5071856;28;20037;-59
2022/12/12 03:45:35;;;;;;;22.13;12.43;;;1.30;99.90;;;;;;5071635;28;20044;-58
2022/12/12 03:48:12;;;;;;;21.70;11.85;;;1.20;99.90;;;;;;5071540;28;20036;-59
2022/12/12 03:50:44;;;;;;;20.90;12.23;;;1.30;99.90;;;;;;5072047;28;20119;-60
2022/12/12 03:53:18;;;;;;;20.83;12.38;;;1.20;99.90;;;;;;5053786;28;20090;-60
2022/12/12 03:55:57;;;;;;;21.98;12.32;;;1.30;99.90;;;;;;5070687;28;20045;-57
2022/12/12 03:58:34;;;;;;;22.40;12.55;;;1.30;99.90;;;;;;5062715;28;20040;-57
2022/12/12 04:01:03;;;;;;;20.58;11.35;;;1.30;99.90;;;;;;5071955;28;20044;-58
2022/12/12 04:03:39;;;;;;;19.05;11.77;;;1.30;99.90;;;;;;5071657;28;20036;-59
2022/12/12 04:06:25;;;;;;;18.77;11.57;;;1.30;99.90;;;;;;5071229;28;20436;-59
2022/12/12 04:14:59;;;;;;;19.20;10.63;;;1.30;99.90;;;;;;5061223;28;20076;-59
2022/12/12 04:17:37;;;;;;;19.88;10.85;;;1.30;99.90;;;;;;5071568;28;20056;-59
2022/12/12 04:23:57;;;;;;;19.65;11.73;;;1.30;99.90;;;;;;5026637;28;20424;-61
2022/12/12 04:26:39;;;;;;;23.10;11.93;;;1.20;99.90;;;;;;5071303;28;20552;-57
2022/12/12 04:29:21;;;;;;;21.52;12.07;;;1.30;99.90;;;;;;5071358;28;20111;-61
2022/12/12 04:31:59;;;;;;;22.27;12.27;;;1.20;99.90;;;;;;5071392;28;20036;-59
2022/12/12 04:34:28;;;;;;;19.35;11.30;;;1.20;99.90;;;;;;5071125;28;20218;-60
2022/12/12 04:36:54;;;;;;;22.45;12.40;;;1.20;99.90;;;;;;5071701;28;20070;-61
2022/12/12 04:39:22;;;;;;;19.92;12.07;;;1.20;99.90;;;;;;5053300;28;20072;-60
2022/12/12 04:41:50;;;;;;;20.88;11.60;;;1.20;99.90;;;;;;5073899;28;20059;-59
2022/12/12 04:44:17;;;;;;;19.58;11.18;;;1.20;99.90;;;;;;5074678;28;20041;-60
2022/12/12 04:46:47;;;;;;;21.75;12.05;;;1.20;99.90;;;;;;5075131;28;20048;-60
2022/12/12 04:49:18;;;;;;;19.27;10.82;;;1.20;99.90;;;;;;5074962;28;20036;-59
2022/12/12 04:51:48;;;;;;;22.55;12.05;;;1.20;99.90;;;;;;5073615;28;20067;-59
2022/12/12 04:54:23;;;;;;;20.17;10.85;;;1.30;99.90;;;;;;5056446;28;20036;-61
2022/12/12 04:56:54;;;;;;;20.00;11.23;;;1.30;99.90;;;;;;5057090;28;20036;-59
2022/12/12 04:59:20;;;;;;;19.38;11.15;;;1.30;99.90;;;;;;5039808;28;20449;-61
2022/12/12 05:01:59;;;;;;;18.77;10.90;;;1.30;99.90;;;;;;5056691;28;20169;-60
2022/12/12 05:04:48;;;;;;;19.63;11.77;;;1.40;99.90;;;;;;5056249;28;20084;-60
2022/12/12 05:07:26;;;;;;;20.55;11.20;;;1.40;99.90;;;;;;5039984;28;20041;-59
2022/12/12 05:09:52;;;;;;;20.40;11.65;;;1.40;99.90;;;;;;5049948;28;20462;-59
2022/12/12 05:12:18;;;;;;;20.38;11.93;;;1.30;99.90;;;;;;5056127;28;20046;-59
2022/12/12 05:14:43;;;;;;;21.17;12.35;;;1.30;99.90;;;;;;5056296;28;20051;-59
2022/12/12 05:17:14;;;;;;;20.83;12.25;;;1.30;99.90;;;;;;5075451;28;20353;-61
2022/12/12 05:19:39;;;;;;;19.38;10.98;;;1.20;99.90;;;;;;5075236;28;20059;-59
2022/12/12 05:22:05;;;;;;;21.55;11.98;;;1.20;99.90;;;;;;5074188;28;20048;-61
2022/12/12 05:24:30;;;;;;;19.60;11.23;;;1.20;99.90;;;;;;5073842;28;20036;-61
2022/12/12 05:26:59;;;;;;;21.30;16.08;;;1.20;99.90;;;;;;5073651;28;20459;-60
2022/12/12 05:29:25;;;;;;;22.50;12.18;;;1.20;99.90;;;;;;5072286;28;20135;-59
2022/12/12 05:31:50;;;;;;;20.73;11.27;;;1.20;99.90;;;;;;5073802;28;20485;-60
2022/12/12 05:34:16;;;;;;;21.17;11.02;;;1.20;99.90;;;;;;5073731;28;20040;-61
2022/12/12 05:36:42;;;;;;;20.40;11.68;;;1.20;99.90;;;;;;5074041;28;20047;-58
2022/12/12 05:39:07;;;;;;;21.08;11.73;;;1.20;99.90;;;;;;5055856;28;20041;-61
2022/12/12 05:41:33;;;;;;;20.83;11.80;;;1.10;99.90;;;;;;5073920;28;20072;-59
2022/12/12 05:43:58;;;;;;;22.83;11.65;;;1.10;99.90;;;;;;5073109;28;20051;-61
2022/12/12 05:46:24;;;;;;;25.05;12.05;;;1.10;99.90;;;;;;5073497;28;20140;-59
2022/12/12 05:48:50;;;;;;;22.55;11.25;;;1.10;99.90;;;;;;5073121;28;20048;-59
2022/12/12 05:51:20;;;;;;;20.73;12.38;;;1.20;99.90;;;;;;5055563;28;20028;-59
2022/12/12 05:53:46;;;;;;;21.17;11.32;;;1.10;99.90;;;;;;5072869;28;20371;-59
2022/12/12 05:56:12;;;;;;;19.23;11.75;;;1.10;99.90;;;;;;5073274;28;20098;-61
2022/12/12 05:58:39;;;;;;;19.92;11.35;;;1.10;99.90;;;;;;5055076;28;20036;-59
2022/12/12 06:01:05;;;;;;;21.70;12.02;;;1.10;99.90;;;;;;5073363;28;20116;-61
2022/12/12 06:03:31;;;;;;;20.60;11.60;;;1.10;99.90;;;;;;5072707;28;20127;-61
2022/12/12 06:05:57;;;;;;;22.08;12.43;;;1.10;99.90;;;;;;5073167;28;20040;-61
2022/12/12 06:08:22;;;;;;;19.38;10.75;;;1.10;99.90;;;;;;5072605;28;20453;-61
2022/12/12 06:10:48;;;;;;;21.20;12.05;;;1.00;99.90;;;;;;5073469;28;20072;-58
2022/12/12 06:13:14;;;;;;;21.55;12.07;;;1.00;99.90;;;;;;5073422;28;20067;-59
2022/12/12 06:15:40;;;;;;;19.50;10.82;;;1.00;99.90;;;;;;5054890;28;20076;-58
2022/12/12 06:18:06;;;;;;;18.63;11.05;;;1.00;99.90;;;;;;5054881;28;20078;-59
2022/12/12 06:20:32;;;;;;;20.45;11.50;;;1.00;99.90;;;;;;5055006;28;20062;-61
2022/12/12 06:22:58;;;;;;;21.70;12.25;;;1.00;99.90;;;;;;5055033;28;20048;-59
2022/12/12 06:25:24;;;;;;;21.83;11.43;;;1.00;99.90;;;;;;5070981;28;20228;-59
2022/12/12 06:27:50;;;;;;;19.23;11.45;;;1.00;99.90;;;;;;5054846;28;20478;-59
2022/12/12 06:30:16;;;;;;;19.75;10.95;;;1.00;99.90;;;;;;5055710;28;20421;-59
2022/12/12 06:32:41;;;;;;;24.92;13.15;;;1.00;99.90;;;;;;5054607;28;20473;-59
2022/12/12 06:35:08;;;;;;;23.00;11.73;;;1.00;99.90;;;;;;5072270;28;20334;-59
2022/12/12 06:37:33;;;;;;;18.15;11.20;;;1.00;99.90;;;;;;5072605;28;20055;-59
2022/12/12 06:39:59;;;;;;;22.23;11.52;;;1.00;99.90;;;;;;5055276;28;20037;-61
2022/12/12 06:42:25;;;;;;;22.08;12.07;;;1.00;99.90;;;;;;5054565;28;20150;-61
2022/12/12 06:44:50;;;;;;;20.63;12.35;;;1.00;99.90;;;;;;5054820;28;20037;-60
2022/12/12 06:47:16;;;;;;;21.30;12.43;;;1.00;99.90;;;;;;5037801;28;20437;-59
2022/12/12 06:49:42;;;;;;;19.73;10.75;;;1.00;99.90;;;;;;5072067;28;20334;-60
2022/12/12 06:52:07;;;;;;;19.63;11.38;;;0.90;99.90;;;;;;5037845;28;20052;-60
2022/12/12 06:54:33;;;;;;;21.20;11.65;;;1.00;99.90;;;;;;5037963;28;20048;-62
2022/12/12 06:56:58;;;;;;;19.63;11.38;;;1.00;99.90;;;;;;5054659;28;20050;-61
2022/12/12 06:59:24;;;;;;;20.48;11.57;;;1.00;99.90;;;;;;5071866;28;20040;-62
2022/12/12 07:01:50;;;;;;;19.77;11.43;;;1.00;99.90;;;;;;5072170;28;20357;-62
2022/12/12 07:04:15;;;;;;;17.98;11.68;;;1.00;99.90;;;;;;5053935;28;20044;-62
2022/12/12 07:06:41;;;;;;;19.00;11.48;;;1.00;99.90;;;;;;5054199;28;20044;-58
2022/12/12 07:09:07;;;;;;;19.08;11.38;;;1.00;99.90;;;;;;5072155;28;20029;-59
2022/12/12 07:11:33;;;;;;;20.98;10.80;;;1.00;99.90;;;;;;5071032;28;20113;-59
2022/12/12 07:14:00;;;;;;;20.85;11.50;;;1.00;99.90;;;;;;5070683;28;20029;-62
2022/12/12 07:16:25;;;;;;;20.05;10.95;;;1.10;99.90;;;;;;5072284;28;20040;-62
2022/12/12 07:18:51;;;;;;;19.42;11.60;;;1.00;99.90;;;;;;5071436;28;20047;-61
2022/12/12 07:21:18;;;;;;;21.48;11.82;;;1.00;99.90;;;;;;5072227;28;20372;-59
2022/12/12 07:23:44;;;;;;;21.08;11.38;;;1.00;99.90;;;;;;5071720;28;20048;-61
2022/12/12 07:26:20;;;;;;;17.85;10.90;;;1.00;99.90;;;;;;5071782;28;20048;-59
2022/12/12 07:28:46;;;;;;;21.52;12.25;;;1.00;99.90;;;;;;5071882;28;20376;-61
2022/12/12 07:31:14;;;;;;;23.85;12.07;;;1.00;99.90;;;;;;5072033;28;20440;-61
2022/12/12 07:33:40;;;;;;;22.80;11.32;;;1.00;99.90;;;;;;5071525;28;20036;-61
2022/12/12 07:36:06;;;;;;;19.15;11.18;;;1.00;99.90;;;;;;5072236;28;20341;-61
2022/12/12 07:38:32;;;;;;;19.25;10.52;;;1.00;99.90;;;;;;5071838;28;20036;-60
2022/12/12 07:41:04;;;;;;;19.65;10.80;;;1.00;99.90;;;;;;5071456;28;20337;-59
2022/12/12 07:43:29;;;;;;;20.92;11.10;;;1.10;99.90;;;;;;5053847;28;20368;-62
2022/12/12 07:45:55;;;;;;;20.60;11.40;;;1.00;99.90;;;;;;5071654;28;20136;-60
2022/12/12 07:48:20;;;;;;;20.48;11.93;;;1.10;99.90;;;;;;5071477;28;20465;-61
2022/12/12 07:50:46;;;;;;;19.95;15.90;;;1.10;99.90;;;;;;5071820;28;20044;-61
2022/12/12 07:53:12;;;;;;;22.42;12.10;;;1.00;99.90;;;;;;5057134;28;20109;-61
2022/12/12 07:55:39;;;;;;;19.77;10.90;;;1.00;99.90;;;;;;5071461;28;20540;-60
2022/12/12 07:58:04;;;;;;;22.70;12.10;;;1.00;99.90;;;;;;5071224;28;20474;-62
2022/12/12 08:00:30;;;;;;;20.23;11.82;;;1.10;99.90;;;;;;5071338;28;20040;-61
2022/12/12 08:02:55;;;;;;;18.77;11.57;;;1.00;99.90;;;;;;5053534;28;20072;-61
2022/12/12 08:05:21;;;;;;;20.95;11.63;;;1.10;99.90;;;;;;5071074;28;20103;-60
2022/12/12 08:07:47;;;;;;;19.90;11.00;;;1.10;99.90;;;;;;5071159;28;20036;-62
2022/12/12 08:10:12;;;;;;;21.23;11.35;;;1.10;99.90;;;;;;5071596;28;20138;-61
2022/12/12 08:12:38;;;;;;;23.65;12.52;;;1.10;99.90;;;;;;5071229;28;20037;-61
2022/12/12 08:15:04;;;;;;;21.98;11.40;;;1.00;99.90;;;;;;5071566;28;20032;-59
2022/12/12 08:17:29;;;;;;;19.75;11.70;;;1.10;99.90;;;;;;5060632;28;20123;-59
2022/12/12 08:19:55;;;;;;;22.60;12.52;;;1.00;99.90;;;;;;5075083;28;20036;-58
2022/12/12 08:22:20;;;;;;;22.23;11.85;;;1.10;99.90;;;;;;5074914;28;20047;-60
2022/12/12 08:24:48;;;;;;;20.15;11.02;;;1.10;99.90;;;;;;5074570;28;20063;-61
2022/12/12 08:27:14;;;;;;;21.52;12.15;;;1.10;99.90;;;;;;5074636;28;20082;-60
2022/12/12 08:29:39;;;;;;;20.25;11.50;;;1.10;99.90;;;;;;5075023;28;20075;-60
2022/12/12 08:32:05;;;;;;;23.77;12.25;;;1.10;99.90;;;;;;5056791;28;20380;-60
2022/12/12 08:34:31;;;;;;;20.80;11.60;;;1.10;99.90;;;;;;5074867;28;20088;-60
2022/12/12 08:36:56;;;;;;;21.40;12.18;;;1.10;99.90;;;;;;5057076;28;20052;-61
2022/12/12 08:39:22;;;;;;;21.98;12.63;;;1.10;99.90;;;;;;5074692;28;20528;-59
2022/12/12 08:41:48;;;;;;;21.48;12.57;;;1.10;99.90;;;;;;5074989;28;20041;-61
2022/12/12 08:44:15;;;;;;;22.73;11.80;;;1.20;99.90;;;;;;5074268;28;20044;-60
2022/12/12 08:46:41;;;;;;;20.02;11.57;;;1.20;99.90;;;;;;5039884;28;20037;-61
2022/12/12 08:49:07;;;;;;;23.55;12.57;;;1.20;99.90;;;;;;5056074;28;20049;-61
2022/12/12 08:51:33;;;;;;;21.55;12.57;;;1.20;99.90;;;;;;5056931;28;20045;-60
2022/12/12 08:53:59;;;;;;;21.55;12.73;;;1.20;99.90;;;;;;5073996;28;20364;-60
2022/12/12 08:56:25;;;;;;;21.77;12.70;;;1.20;99.90;;;;;;5056403;28;20036;-59
2022/12/12 08:58:51;;;;;;;25.80;13.05;;;1.30;99.90;;;;;;5074083;28;20041;-59
2022/12/12 09:01:20;;;;;;;23.55;13.38;;;1.30;99.90;;;;;;5074474;28;20480;-58
2022/12/12 09:03:46;;;;;;;23.88;12.95;;;1.30;99.90;;;;;;5073974;28;20055;-59
2022/12/12 09:06:13;;;;;;;25.30;12.88;;;1.30;99.90;;;;;;5074506;28;20048;-60
2022/12/12 09:08:38;;;;;;;24.02;13.48;;;1.40;99.90;;;;;;5073697;28;20357;-60
2022/12/12 09:11:04;;;;;;;24.38;13.35;;;1.30;99.90;;;;;;5073568;28;20039;-62
2022/12/12 09:13:30;;;;;;;25.42;13.60;;;1.40;99.90;;;;;;5073829;28;20045;-60
2022/12/12 09:15:56;;;;;;;23.02;12.85;;;1.50;99.90;;;;;;5074320;28;20040;-60
2022/12/12 09:18:22;;;;;;;24.35;13.48;;;1.50;99.90;;;;;;5073803;28;20047;-59
2022/12/12 09:20:49;;;;;;;24.88;13.90;;;1.50;99.90;;;;;;5073803;28;20032;-59
2022/12/12 09:23:15;;;;;;;26.25;14.63;;;1.50;99.90;;;;;;5073870;28;20071;-58
2022/12/12 09:25:40;;;;;;;21.95;12.20;;;1.50;99.90;;;;;;5073524;28;20123;-61
2022/12/12 09:28:07;;;;;;;23.50;13.23;;;1.60;99.90;;;;;;5072940;28;20115;-58
2022/12/12 09:30:32;;;;;;;25.13;14.02;;;1.60;99.90;;;;;;5074026;28;20362;-62
2022/12/12 09:32:58;;;;;;;27.27;14.95;;;1.60;99.90;;;;;;5055414;28;20079;-59
2022/12/12 09:35:24;;;;;;;25.25;14.55;;;1.60;99.90;;;;;;5073430;28;20638;-60
2022/12/12 09:37:49;;;;;;;26.73;14.63;;;1.70;99.90;;;;;;5073333;28;20158;-58
2022/12/12 09:40:19;;;;;;;26.27;14.73;;;1.70;99.90;;;;;;5073617;28;20431;-60
2022/12/12 09:42:49;;;;;;;29.05;15.32;;;1.60;99.90;;;;;;5073364;28;20051;-59
2022/12/12 09:45:15;;;;;;;29.73;15.40;;;1.70;99.90;;;;;;5073348;28;20060;-57
2022/12/12 09:47:44;;;;;;;26.92;15.02;;;1.70;99.90;;;;;;5055241;28;20051;-59
2022/12/12 09:50:29;;;;;;;26.25;15.70;;;1.70;99.90;;;;;;5073526;28;20051;-59
2022/12/12 09:52:59;;;;;;;29.17;14.75;;;1.80;99.90;;;;;;5073395;28;20067;-60
2022/12/12 09:55:40;;;;;;;27.27;15.65;;;1.80;99.90;;;;;;5072873;28;20052;-57
2022/12/12 09:58:43;;;;;;;27.83;15.60;;;1.80;99.90;;;;;;5073075;28;20360;-59
2022/12/12 10:01:57;;;;;;;29.58;16.67;;;1.90;99.90;;;;;;5073005;28;20040;-62
2022/12/12 10:04:49;;;;;;;31.08;16.60;;;1.90;99.90;;;;;;5065463;28;20448;-60
2022/12/12 10:07:29;;;;;;;28.58;15.63;;;1.80;99.90;;;;;;5072876;28;20042;-59
2022/12/12 10:10:26;;;;;;;30.70;16.45;;;1.90;99.90;;;;;;5073308;28;20062;-58
2022/12/12 10:12:54;;;;;;;33.40;16.73;;;1.80;99.90;;;;;;5062874;28;20063;-60
2022/12/12 10:15:43;;;;;;;30.65;23.60;;;1.90;99.90;;;;;;5071595;28;20057;-61
2022/12/12 10:18:34;;;;;;;48.92;21.33;;;2.00;99.90;;;;;;5072898;28;20234;-60
2022/12/12 10:21:03;;;;;;;36.95;18.73;;;2.00;99.90;;;;;;5059096;28;20095;-61
2022/12/12 10:23:31;;;;;;;31.08;17.27;;;2.10;99.90;;;;;;5072591;28;20037;-59
2022/12/12 10:26:16;;;;;;;33.03;18.20;;;2.10;99.90;;;;;;5072414;28;20041;-59
2022/12/12 10:28:41;;;;;;;32.25;16.60;;;2.10;99.90;;;;;;5072558;28;20067;-60
2022/12/12 10:31:13;;;;;;;30.48;17.05;;;2.10;99.90;;;;;;5072739;28;20463;-60
2022/12/12 10:34:00;;;;;;;33.15;18.05;;;2.20;99.90;;;;;;5072198;28;20044;-60
2022/12/12 10:36:55;;;;;;;32.42;18.35;;;2.10;99.90;;;;;;5060616;28;20048;-58
2022/12/12 10:39:45;;;;;;;34.22;18.20;;;2.20;99.90;;;;;;5071604;28;20040;-62
2022/12/12 10:42:18;;;;;;;31.45;17.52;;;2.20;99.90;;;;;;5072703;28;20067;-62
2022/12/12 10:45:10;;;;;;;40.17;19.58;;;2.20;99.90;;;;;;5040823;28;20067;-60
2022/12/12 10:47:36;;;;;;;32.85;16.83;;;2.30;99.90;;;;;;5071074;28;20059;-62
2022/12/12 10:50:32;;;;;;;29.27;17.10;;;2.30;99.90;;;;;;5054681;28;20036;-61
2022/12/12 10:52:59;;;;;;;32.50;18.27;;;2.30;99.90;;;;;;5071989;28;20037;-62
2022/12/12 10:55:36;;;;;;;32.97;23.90;;;2.30;99.90;;;;;;5054444;28;20453;-61
2022/12/12 10:58:04;;;;;;;32.13;18.35;;;2.30;99.90;;;;;;5037536;28;20033;-61
2022/12/12 11:00:33;;;;;;;33.05;18.73;;;2.30;99.90;;;;;;5054549;28;20483;-60
2022/12/12 11:03:18;;;;;;;31.05;18.10;;;2.20;99.90;;;;;;5070537;28;20068;-64
2022/12/12 11:05:44;;;;;;;29.75;17.13;;;2.30;99.90;;;;;;5041598;28;20078;-60
2022/12/12 11:08:31;;;;;;;28.77;17.23;;;2.30;99.90;;;;;;5054262;28;20068;-60
2022/12/12 11:11:05;;;;;;;29.02;16.10;;;2.30;99.90;;;;;;5042474;28;20125;-61
2022/12/12 11:13:39;;;;;;;33.38;18.80;;;2.40;99.90;;;;;;5054117;28;20044;-61
2022/12/12 11:16:36;;;;;;;31.35;16.35;;;2.30;99.90;;;;;;5072642;28;20048;-61
2022/12/12 11:19:35;;;;;;;31.52;16.75;;;2.40;99.90;;;;;;5043873;28;20449;-62
2022/12/12 11:22:03;;;;;;;33.17;18.67;;;2.40;99.90;;;;;;5037176;28;20059;-60
2022/12/12 11:24:31;;;;;;;33.92;19.00;;;2.40;99.90;;;;;;5037335;28;20051;-61
2022/12/12 11:27:01;;;;;;;33.72;17.92;;;2.50;99.90;;;;;;5035687;28;20067;-61
2022/12/12 11:29:38;;;;;;;34.80;19.70;;;2.40;99.90;;;;;;5030511;28;20045;-60
2022/12/12 11:32:09;;;;;;;35.10;18.98;;;2.40;99.90;;;;;;5030626;28;20046;-61
2022/12/12 11:34:38;;;;;;;36.17;20.08;;;2.50;99.90;;;;;;5030432;28;20117;-59
2022/12/12 11:37:04;;;;;;;37.45;19.85;;;2.50;99.90;;;;;;5014783;28;20121;-62
2022/12/12 11:39:44;;;;;;;35.45;18.88;;;2.50;99.90;;;;;;5014543;28;20112;-60
2022/12/12 11:42:12;;;;;;;37.00;20.90;;;2.50;99.90;;;;;;5014352;28;20041;-59
2022/12/12 11:44:38;;;;;;;35.65;19.33;;;2.50;99.90;;;;;;5030291;28;20178;-63
2022/12/12 11:47:25;;;;;;;34.53;19.00;;;2.60;99.90;;;;;;5014457;28;20056;-64
2022/12/12 11:49:57;;;;;;;37.75;20.25;;;2.60;99.90;;;;;;5031539;28;20115;-60
2022/12/12 11:52:27;;;;;;;34.67;18.95;;;2.70;99.90;;;;;;5034854;28;20056;-62
2022/12/12 11:54:53;;;;;;;30.98;19.65;;;2.70;99.90;;;;;;5035628;28;20057;-62
2022/12/12 11:57:53;;;;;;;33.85;19.15;;;2.60;99.90;;;;;;5034508;28;20443;-60
2022/12/12 12:00:23;;;;;;;33.75;18.38;;;2.50;99.90;;;;;;5024742;28;20048;-60
2022/12/12 12:03:20;;;;;;;37.45;19.80;;;2.50;99.90;;;;;;5017873;28;20396;-62
2022/12/12 12:06:15;;;;;;;37.72;27.15;;;2.60;99.90;;;;;;5021959;28;20052;-60
2022/12/12 12:09:11;;;;;;;34.97;18.77;;;2.60;99.90;;;;;;5034211;28;20076;-61
2022/12/12 12:11:53;;;;;;;35.08;18.10;;;2.60;99.90;;;;;;5034673;28;20095;-59
2022/12/12 12:14:49;;;;;;;33.40;17.70;;;2.50;99.90;;;;;;5034092;28;20063;-62
2022/12/12 12:17:30;;;;;;;34.25;19.42;;;2.60;99.90;;;;;;5035349;28;20438;-62
2022/12/12 12:20:31;;;;;;;42.95;20.83;;;2.60;99.90;;;;;;5035213;28;20041;-62
2022/12/12 12:23:18;;;;;;;33.33;17.77;;;2.70;99.90;;;;;;5023770;28;20061;-60
2022/12/12 12:25:48;;;;;;;36.03;20.67;;;2.70;99.90;;;;;;5033986;28;20130;-60
2022/12/12 12:28:35;;;;;;;37.03;19.00;;;2.70;99.90;;;;;;5034981;28;20073;-62
2022/12/12 12:31:17;;;;;;;37.28;20.95;;;2.70;99.90;;;;;;5034206;28;20041;-61
2022/12/12 12:34:01;;;;;;;37.20;21.17;;;2.70;99.90;;;;;;5034834;28;20037;-60
2022/12/12 12:36:52;;;;;;;34.20;19.23;;;2.60;99.90;;;;;;5035460;28;20037;-60
2022/12/12 12:40:02;;;;;;;33.53;19.85;;;2.70;99.90;;;;;;5033745;28;20045;-59
2022/12/12 12:42:46;;;;;;;35.17;19.40;;;2.70;99.90;;;;;;5050421;28;20045;-57
2022/12/12 12:45:27;;;;;;;39.58;19.77;;;2.70;99.90;;;;;;5034938;28;20434;-61
2022/12/12 12:48:01;;;;;;;36.63;20.17;;;2.70;99.90;;;;;;5034554;28;20080;-59
2022/12/12 12:50:41;;;;;;;37.63;19.58;;;2.80;99.90;;;;;;5034851;28;20076;-60
2022/12/12 12:53:24;;;;;;;31.35;18.42;;;2.80;99.90;;;;;;5034364;28;20061;-61
2022/12/12 12:55:57;;;;;;;34.00;25.05;;;3.00;99.90;;;;;;5034795;28;20167;-60
2022/12/12 12:58:32;;;;;;;31.17;19.48;;;3.00;99.90;;;;;;5034577;28;20420;-58
2022/12/12 13:01:09;;;;;;;30.25;18.58;;;3.00;99.90;;;;;;5034192;28;20041;-58
2022/12/12 13:03:44;;;;;;;30.83;18.00;;;3.10;99.90;;;;;;5031353;28;20037;-63
2022/12/12 13:06:17;;;;;;;27.25;16.95;;;3.10;99.90;;;;;;5033804;28;20038;-60
2022/12/12 13:08:52;;;;;;;31.02;17.58;;;3.10;99.90;;;;;;5032875;28;20039;-61
2022/12/12 13:11:25;;;;;;;38.78;20.80;;;3.10;99.90;;;;;;5033113;28;20033;-60
2022/12/12 13:13:55;;;;;;;40.40;21.02;;;3.00;99.90;;;;;;5033787;28;20427;-61